createdAt,value
2022-08-01T00:01:10.333Z,0.00
2022-08-01T00:02:10.660Z,0.00
2022-08-01T00:04:04.413Z,0.00
2022-08-01T00:05:04.404Z,0.00
2022-08-01T00:06:58.509Z,0.00
2022-08-01T00:07:58.505Z,0.00
2022-08-01T00:09:53.230Z,0.00
2022-08-01T00:10:53.221Z,0.00
2022-08-01T00:12:47.449Z,0.00
2022-08-01T00:13:47.437Z,0.00
2022-08-01T00:15:41.503Z,0.00
2022-08-01T00:16:41.503Z,0.00
2022-08-01T00:18:36.613Z,0.00
2022-08-01T00:19:36.579Z,0.00
2022-08-01T00:21:30.679Z,0.00
2022-08-01T00:22:30.677Z,0.00
2022-08-01T00:24:25.777Z,0.00
2022-08-01T00:25:34.065Z,0.00
2022-08-01T00:27:19.894Z,0.00
2022-08-01T00:28:19.893Z,0.00
2022-08-01T00:30:15.186Z,0.00
2022-08-01T00:31:14.718Z,0.00
2022-08-01T00:33:08.573Z,0.00
2022-08-01T00:34:08.562Z,0.00
2022-08-01T00:36:02.678Z,0.00
2022-08-01T00:37:02.665Z,0.00
2022-08-01T00:38:56.810Z,0.00
2022-08-01T00:39:56.795Z,0.00
2022-08-01T00:41:59.945Z,0.00
2022-08-01T00:42:51.878Z,0.00
2022-08-01T00:44:46.053Z,0.00
2022-08-01T00:45:46.033Z,0.00
2022-08-01T00:47:41.122Z,0.00
2022-08-01T00:48:41.100Z,0.00
2022-08-01T00:50:35.177Z,0.00
2022-08-01T00:51:35.175Z,0.00
2022-08-01T00:53:38.684Z,0.00
2022-08-01T00:54:29.234Z,0.00
2022-08-01T00:56:23.314Z,0.00
2022-08-01T00:57:27.890Z,0.00
2022-08-01T00:59:17.417Z,0.00
2022-08-01T01:00:17.401Z,0.00
2022-08-01T01:02:14.864Z,0.00
2022-08-01T01:03:11.490Z,0.00
2022-08-01T01:05:05.568Z,0.00
2022-08-01T01:06:05.555Z,0.00
2022-08-01T01:08:00.652Z,0.00
2022-08-01T01:09:00.640Z,0.00
2022-08-01T01:10:54.350Z,0.00
2022-08-01T01:11:54.346Z,0.00
2022-08-01T01:13:50.341Z,0.00
2022-08-01T01:14:48.518Z,0.00
2022-08-01T01:16:42.627Z,0.00
2022-08-01T01:17:51.039Z,0.00
2022-08-01T01:19:36.871Z,0.00
2022-08-01T01:20:36.858Z,0.00
2022-08-01T01:22:30.947Z,0.00
2022-08-01T01:23:30.944Z,0.00
2022-08-01T01:25:25.046Z,0.00
2022-08-01T01:26:25.030Z,0.00
2022-08-01T01:28:19.478Z,0.00
2022-08-01T01:29:19.467Z,0.00
2022-08-01T01:31:13.538Z,0.00
2022-08-01T01:32:13.537Z,0.00
2022-08-01T01:34:07.608Z,0.00
2022-08-01T01:35:07.598Z,0.00
2022-08-01T01:37:02.702Z,0.00
2022-08-01T01:38:02.694Z,0.00
2022-08-01T01:39:56.822Z,0.00
2022-08-01T01:40:56.808Z,0.00
2022-08-01T01:42:50.951Z,0.00
2022-08-01T01:43:50.933Z,0.00
2022-08-01T01:45:45.007Z,0.00
2022-08-01T01:46:45.003Z,0.00
2022-08-01T01:48:39.090Z,0.00
2022-08-01T01:49:39.076Z,0.00
2022-08-01T01:51:33.153Z,0.00
2022-08-01T01:52:33.149Z,0.00
2022-08-01T01:54:27.419Z,0.00
2022-08-01T01:55:27.404Z,0.00
2022-08-01T01:57:21.481Z,0.00
2022-08-01T01:58:21.479Z,0.00
2022-08-01T02:00:15.554Z,0.00
2022-08-01T02:01:15.587Z,0.00
2022-08-01T02:03:10.674Z,0.00
2022-08-01T02:04:10.671Z,0.00
2022-08-01T02:06:05.724Z,0.00
2022-08-01T02:07:05.720Z,0.00
2022-08-01T02:08:59.880Z,0.00
2022-08-01T02:09:59.862Z,0.00
2022-08-01T02:12:08.113Z,0.00
2022-08-01T02:12:53.708Z,0.00
2022-08-01T02:14:47.790Z,0.00
2022-08-01T02:15:59.361Z,0.00
2022-08-01T02:17:41.913Z,0.00
2022-08-01T02:18:41.896Z,0.00
2022-08-01T02:20:35.950Z,0.00
2022-08-01T02:21:35.941Z,0.00
2022-08-01T02:23:31.076Z,0.00
2022-08-01T02:24:31.061Z,0.00
2022-08-01T02:26:25.235Z,0.00
2022-08-01T02:27:25.225Z,0.00
2022-08-01T02:29:20.421Z,0.00
2022-08-01T02:30:20.405Z,0.00
2022-08-01T02:32:14.450Z,0.00
2022-08-01T02:33:16.125Z,0.00
2022-08-01T02:35:08.555Z,0.00
2022-08-01T02:36:31.276Z,0.00
2022-08-01T02:38:02.706Z,0.00
2022-08-01T02:39:02.701Z,0.00
2022-08-01T02:40:56.967Z,0.00
2022-08-01T02:41:56.959Z,0.00
2022-08-01T02:43:53.466Z,0.00
2022-08-01T02:44:52.042Z,0.00
2022-08-01T02:46:46.139Z,0.00
2022-08-01T02:47:46.136Z,0.00
2022-08-01T02:49:40.207Z,0.00
2022-08-01T02:50:40.189Z,0.00
2022-08-01T02:52:35.383Z,0.00
2022-08-01T02:53:38.912Z,0.00
2022-08-01T02:55:29.462Z,0.00
2022-08-01T02:56:29.456Z,0.00
2022-08-01T02:58:23.503Z,0.00
2022-08-01T02:59:23.487Z,0.00
2022-08-01T03:01:17.629Z,0.00
2022-08-01T03:02:17.574Z,0.00
2022-08-01T03:04:12.622Z,0.00
2022-08-01T03:05:12.610Z,0.00
2022-08-01T03:07:06.786Z,0.00
2022-08-01T03:08:14.526Z,0.00
2022-08-01T03:10:00.897Z,0.00
2022-08-01T03:11:00.883Z,0.00
2022-08-01T03:12:54.729Z,0.00
2022-08-01T03:13:54.708Z,0.00
2022-08-01T03:15:48.846Z,0.00
2022-08-01T03:16:48.843Z,0.00
2022-08-01T03:18:42.910Z,0.00
2022-08-01T03:19:42.892Z,0.00
2022-08-01T03:21:36.958Z,0.00
2022-08-01T03:22:36.953Z,0.00
2022-08-01T03:24:31.078Z,0.00
2022-08-01T03:25:31.061Z,0.00
2022-08-01T03:27:26.173Z,0.00
2022-08-01T03:28:29.662Z,0.00
2022-08-01T03:30:19.893Z,0.00
2022-08-01T03:31:19.879Z,0.00
2022-08-01T03:33:14.493Z,0.00
2022-08-01T03:34:13.943Z,0.00
2022-08-01T03:36:09.115Z,0.00
2022-08-01T03:37:09.111Z,0.00
2022-08-01T03:39:04.247Z,0.00
2022-08-01T03:40:04.231Z,0.00
2022-08-01T03:41:58.353Z,0.00
2022-08-01T03:42:58.352Z,0.00
2022-08-01T03:44:52.424Z,0.00
2022-08-01T03:45:52.394Z,0.00
2022-08-01T03:47:47.479Z,0.00
2022-08-01T03:48:47.509Z,0.00
2022-08-01T03:50:41.583Z,0.00
2022-08-01T03:51:41.563Z,0.00
2022-08-01T03:53:35.673Z,0.00
2022-08-01T03:54:35.650Z,0.00
2022-08-01T03:56:30.730Z,0.00
2022-08-01T03:57:36.733Z,0.00
2022-08-01T03:59:24.878Z,0.00
2022-08-01T04:00:24.862Z,0.00
2022-08-01T04:02:22.651Z,0.00
2022-08-01T04:03:18.925Z,0.00
2022-08-01T04:05:13.045Z,0.00
2022-08-01T04:06:13.034Z,0.00
2022-08-01T04:08:09.709Z,0.00
2022-08-01T04:09:13.348Z,0.00
2022-08-01T04:11:03.749Z,0.00
2022-08-01T04:12:12.169Z,0.00
2022-08-01T04:13:58.870Z,0.00
2022-08-01T04:14:58.849Z,0.00
2022-08-01T04:16:52.925Z,0.00
2022-08-01T04:17:52.919Z,0.00
2022-08-01T04:19:47.004Z,0.00
2022-08-01T04:20:46.989Z,0.00
2022-08-01T04:22:42.115Z,0.00
2022-08-01T04:23:42.098Z,0.00
2022-08-01T04:25:36.206Z,0.00
2022-08-01T04:26:36.201Z,0.00
2022-08-01T04:28:30.310Z,0.00
2022-08-01T04:29:30.293Z,0.00
2022-08-01T04:31:24.104Z,0.00
2022-08-01T04:32:24.092Z,0.00
2022-08-01T04:34:18.254Z,0.00
2022-08-01T04:35:23.062Z,0.00
2022-08-01T04:37:13.162Z,0.00
2022-08-01T04:38:12.392Z,0.00
2022-08-01T04:40:06.488Z,0.00
2022-08-01T04:41:09.146Z,0.00
2022-08-01T04:43:01.611Z,0.00
2022-08-01T04:44:01.602Z,0.00
2022-08-01T04:45:55.667Z,0.00
2022-08-01T04:46:55.663Z,0.00
2022-08-01T04:48:50.841Z,0.00
2022-08-01T04:49:50.803Z,0.00
2022-08-01T04:51:44.879Z,0.00
2022-08-01T04:52:44.873Z,0.00
2022-08-01T04:54:39.067Z,5.63
2022-08-01T04:55:39.050Z,5.63
2022-08-01T04:57:33.151Z,5.63
2022-08-01T04:58:33.134Z,5.63
2022-08-01T05:00:28.211Z,5.63
2022-08-01T05:01:28.294Z,5.63
2022-08-01T05:03:22.329Z,5.63
2022-08-01T05:04:22.310Z,5.63
2022-08-01T05:06:16.515Z,5.63
2022-08-01T05:07:16.507Z,5.63
2022-08-01T05:09:11.580Z,5.63
2022-08-01T05:10:11.556Z,5.63
2022-08-01T05:12:05.874Z,5.63
2022-08-01T05:13:05.643Z,5.63
2022-08-01T05:14:59.772Z,5.63
2022-08-01T05:15:59.757Z,5.63
2022-08-01T05:17:53.831Z,5.63
2022-08-01T05:18:53.828Z,5.63
2022-08-01T05:20:47.915Z,5.63
2022-08-01T05:21:47.900Z,5.63
2022-08-01T05:23:43.582Z,5.63
2022-08-01T05:24:41.979Z,5.63
2022-08-01T05:26:36.091Z,11.25
2022-08-01T05:27:36.078Z,11.25
2022-08-01T05:29:31.177Z,11.25
2022-08-01T05:30:31.159Z,11.25
2022-08-01T05:32:25.303Z,11.25
2022-08-01T05:33:25.300Z,11.25
2022-08-01T05:35:19.486Z,11.25
2022-08-01T05:36:19.470Z,11.25
2022-08-01T05:38:15.003Z,11.25
2022-08-01T05:39:13.692Z,11.25
2022-08-01T05:41:07.791Z,11.25
2022-08-01T05:42:08.271Z,11.25
2022-08-01T05:44:01.903Z,11.25
2022-08-01T05:45:01.888Z,11.25
2022-08-01T05:46:56.976Z,11.25
2022-08-01T05:47:56.970Z,5.63
2022-08-01T05:49:51.033Z,5.63
2022-08-01T05:50:53.757Z,5.63
2022-08-01T05:52:46.110Z,5.63
2022-08-01T05:53:46.102Z,5.63
2022-08-01T05:55:40.223Z,5.63
2022-08-01T05:56:40.212Z,5.63
2022-08-01T05:58:34.323Z,5.63
2022-08-01T05:59:34.326Z,5.63
2022-08-01T06:01:29.410Z,5.63
2022-08-01T06:02:29.430Z,5.63
2022-08-01T06:04:24.452Z,5.63
2022-08-01T06:05:24.439Z,5.63
2022-08-01T06:07:19.520Z,5.63
2022-08-01T06:08:19.511Z,11.25
2022-08-01T06:10:13.665Z,11.25
2022-08-01T06:11:13.653Z,11.25
2022-08-01T06:13:08.793Z,11.25
2022-08-01T06:14:08.794Z,11.25
2022-08-01T06:16:02.853Z,11.25
2022-08-01T06:17:02.839Z,11.25
2022-08-01T06:18:57.048Z,11.25
2022-08-01T06:19:56.927Z,11.25
2022-08-01T06:21:51.035Z,11.25
2022-08-01T06:22:51.767Z,11.25
2022-08-01T06:24:45.125Z,11.25
2022-08-01T06:25:45.102Z,11.25
2022-08-01T06:27:39.232Z,11.25
2022-08-01T06:28:39.226Z,16.88
2022-08-01T06:30:32.948Z,16.88
2022-08-01T06:31:33.868Z,16.88
2022-08-01T06:33:27.163Z,16.88
2022-08-01T06:34:27.155Z,22.50
2022-08-01T06:36:21.281Z,22.50
2022-08-01T06:37:21.266Z,22.50
2022-08-01T06:39:15.419Z,28.13
2022-08-01T06:40:17.368Z,22.50
2022-08-01T06:42:09.642Z,22.50
2022-08-01T06:43:09.632Z,28.13
2022-08-01T06:45:03.730Z,33.75
2022-08-01T06:46:03.718Z,39.38
2022-08-01T06:47:57.813Z,45.00
2022-08-01T06:48:57.847Z,50.63
2022-08-01T06:50:51.958Z,50.63
2022-08-01T06:51:51.950Z,50.63
2022-08-01T06:53:46.025Z,56.25
2022-08-01T06:54:46.022Z,56.25
2022-08-01T06:56:40.317Z,39.38
2022-08-01T06:57:40.305Z,33.75
2022-08-01T06:59:34.410Z,39.38
2022-08-01T07:00:34.453Z,39.38
2022-08-01T07:02:28.636Z,50.63
2022-08-01T07:03:53.180Z,45.00
2022-08-01T07:05:22.691Z,39.38
2022-08-01T07:06:22.677Z,33.75
2022-08-01T07:08:16.757Z,33.75
2022-08-01T07:09:16.748Z,33.75
2022-08-01T07:11:10.847Z,33.75
2022-08-01T07:12:10.835Z,33.75
2022-08-01T07:14:04.947Z,45.00
2022-08-01T07:15:04.935Z,56.25
2022-08-01T07:16:58.981Z,56.25
2022-08-01T07:17:58.971Z,56.25
2022-08-01T07:19:53.033Z,50.63
2022-08-01T07:20:53.118Z,56.25
2022-08-01T07:22:47.589Z,50.63
2022-08-01T07:23:47.098Z,45.00
2022-08-01T07:25:42.245Z,45.00
2022-08-01T07:26:53.384Z,39.38
2022-08-01T07:28:36.461Z,33.75
2022-08-01T07:29:36.453Z,28.13
2022-08-01T07:31:32.359Z,33.75
2022-08-01T07:32:30.579Z,39.38
2022-08-01T07:34:24.688Z,28.13
2022-08-01T07:35:24.665Z,28.13
2022-08-01T07:37:18.753Z,22.50
2022-08-01T07:38:18.746Z,16.88
2022-08-01T07:40:13.020Z,16.88
2022-08-01T07:41:13.005Z,22.50
2022-08-01T07:43:08.208Z,28.13
2022-08-01T07:44:08.200Z,33.75
2022-08-01T07:46:02.315Z,56.25
2022-08-01T07:47:02.305Z,78.75
2022-08-01T07:48:56.471Z,90.00
2022-08-01T07:49:56.411Z,84.38
2022-08-01T07:52:03.489Z,101.25
2022-08-01T07:52:50.498Z,112.50
2022-08-01T07:54:48.080Z,118.13
2022-08-01T07:55:44.597Z,123.75
2022-08-01T07:57:38.481Z,123.75
2022-08-01T07:58:38.474Z,118.13
2022-08-01T08:00:32.635Z,106.88
2022-08-01T08:01:32.681Z,106.88
2022-08-01T08:03:27.779Z,84.38
2022-08-01T08:04:27.773Z,84.38
2022-08-01T08:06:21.942Z,84.38
2022-08-01T08:07:21.926Z,84.38
2022-08-01T08:09:16.030Z,73.13
2022-08-01T08:10:16.018Z,67.50
2022-08-01T08:12:10.379Z,56.25
2022-08-01T08:13:10.089Z,56.25
2022-08-01T08:15:04.157Z,56.25
2022-08-01T08:16:04.145Z,61.88
2022-08-01T08:17:58.281Z,67.50
2022-08-01T08:18:58.275Z,61.88
2022-08-01T08:20:52.390Z,61.88
2022-08-01T08:21:52.375Z,67.50
2022-08-01T08:23:47.544Z,78.75
2022-08-01T08:24:47.536Z,67.50
2022-08-01T08:26:41.818Z,50.63
2022-08-01T08:27:41.804Z,50.63
2022-08-01T08:29:35.962Z,45.00
2022-08-01T08:30:35.947Z,45.00
2022-08-01T08:32:30.059Z,56.25
2022-08-01T08:33:30.054Z,56.25
2022-08-01T08:35:40.236Z,56.25
2022-08-01T08:36:28.568Z,56.25
2022-08-01T08:38:19.237Z,56.25
2022-08-01T08:39:19.907Z,56.25
2022-08-01T08:41:16.823Z,56.25
2022-08-01T08:42:13.475Z,56.25
2022-08-01T08:44:10.034Z,67.50
2022-08-01T08:45:07.612Z,78.75
2022-08-01T08:47:02.722Z,90.00
2022-08-01T08:48:02.712Z,84.38
2022-08-01T08:49:56.790Z,61.88
2022-08-01T08:50:56.779Z,56.25
2022-08-01T08:52:50.865Z,56.25
2022-08-01T08:53:50.861Z,56.25
2022-08-01T08:55:55.537Z,56.25
2022-08-01T08:56:44.912Z,61.88
2022-08-01T08:58:38.732Z,61.88
2022-08-01T08:59:38.714Z,56.25
2022-08-01T09:01:33.857Z,56.25
2022-08-01T09:02:33.837Z,61.88
2022-08-01T09:04:28.011Z,67.50
2022-08-01T09:05:38.658Z,56.25
2022-08-01T09:07:23.264Z,56.25
2022-08-01T09:08:23.243Z,56.25
2022-08-01T09:10:17.365Z,50.63
2022-08-01T09:11:22.492Z,45.00
2022-08-01T09:13:11.430Z,45.00
2022-08-01T09:14:11.423Z,45.00
2022-08-01T09:16:06.498Z,56.25
2022-08-01T09:17:06.480Z,67.50
2022-08-01T09:19:00.549Z,101.25
2022-08-01T09:20:00.544Z,101.25
2022-08-01T09:21:54.677Z,129.38
2022-08-01T09:22:54.662Z,118.13
2022-08-01T09:24:48.877Z,112.50
2022-08-01T09:25:48.865Z,106.88
2022-08-01T09:27:44.465Z,95.63
2022-08-01T09:28:47.550Z,95.63
2022-08-01T09:30:36.404Z,123.75
2022-08-01T09:31:38.512Z,118.13
2022-08-01T09:33:34.870Z,163.13
2022-08-01T09:34:30.520Z,264.38
2022-08-01T09:36:24.581Z,112.50
2022-08-01T09:37:24.568Z,101.25
2022-08-01T09:39:18.643Z,90.00
2022-08-01T09:40:18.685Z,106.88
2022-08-01T09:42:12.739Z,95.63
2022-08-01T09:43:12.732Z,95.63
2022-08-01T09:45:07.347Z,180.00
2022-08-01T09:46:06.842Z,163.13
2022-08-01T09:48:00.913Z,112.50
2022-08-01T09:49:00.960Z,112.50
2022-08-01T09:50:55.339Z,129.38
2022-08-01T09:52:00.550Z,146.25
2022-08-01T09:53:51.883Z,101.25
2022-08-01T09:54:50.079Z,90.00
2022-08-01T09:56:44.200Z,118.13
2022-08-01T09:57:44.184Z,129.38
2022-08-01T09:59:57.049Z,129.38
2022-08-01T10:00:45.263Z,157.50
2022-08-01T10:02:32.515Z,298.13
2022-08-01T10:03:32.600Z,168.75
2022-08-01T10:05:27.597Z,230.63
2022-08-01T10:06:27.587Z,230.63
2022-08-01T10:08:22.996Z,286.88
2022-08-01T10:09:21.662Z,298.13
2022-08-01T10:11:16.762Z,213.75
2022-08-01T10:12:16.749Z,298.13
2022-08-01T10:14:10.877Z,236.25
2022-08-01T10:15:10.877Z,146.25
2022-08-01T10:17:05.737Z,298.13
2022-08-01T10:18:04.963Z,90.00
2022-08-01T10:19:59.042Z,275.63
2022-08-01T10:20:59.033Z,213.75
2022-08-01T10:22:53.106Z,438.75
2022-08-01T10:23:53.118Z,517.50
2022-08-01T10:25:47.419Z,663.75
2022-08-01T10:26:47.268Z,731.25
2022-08-01T10:28:41.417Z,815.63
2022-08-01T10:29:46.703Z,838.13
2022-08-01T10:31:35.545Z,725.63
2022-08-01T10:32:35.537Z,691.88
2022-08-01T10:34:30.651Z,90.00
2022-08-01T10:35:47.054Z,78.75
2022-08-01T10:37:24.764Z,78.75
2022-08-01T10:38:24.754Z,90.00
2022-08-01T10:40:29.985Z,135.00
2022-08-01T10:41:18.889Z,157.50
2022-08-01T10:43:12.962Z,163.13
2022-08-01T10:44:12.969Z,140.63
2022-08-01T10:46:07.160Z,489.38
2022-08-01T10:47:10.004Z,365.63
2022-08-01T10:49:01.342Z,461.25
2022-08-01T10:50:01.253Z,146.25
2022-08-01T10:51:55.332Z,191.25
2022-08-01T10:52:55.323Z,112.50
2022-08-01T10:54:52.227Z,73.13
2022-08-01T10:55:49.436Z,67.50
2022-08-01T10:57:43.538Z,56.25
2022-08-01T10:58:44.458Z,56.25
2022-08-01T11:00:37.637Z,56.25
2022-08-01T11:01:38.449Z,56.25
2022-08-01T11:03:55.558Z,56.25
2022-08-01T11:04:31.775Z,56.25
2022-08-01T11:06:25.915Z,50.63
2022-08-01T11:07:26.079Z,45.00
2022-08-01T11:09:19.968Z,39.38
2022-08-01T11:10:19.968Z,39.38
2022-08-01T11:12:24.582Z,50.63
2022-08-01T11:13:14.241Z,50.63
2022-08-01T11:15:08.624Z,56.25
2022-08-01T11:16:16.779Z,50.63
2022-08-01T11:18:02.731Z,78.75
2022-08-01T11:19:02.730Z,101.25
2022-08-01T11:21:59.057Z,174.38
2022-08-01T11:22:01.151Z,140.63
2022-08-01T11:23:50.951Z,466.88
2022-08-01T11:24:51.175Z,759.38
2022-08-01T11:26:45.046Z,725.63
2022-08-01T11:27:45.037Z,725.63
2022-08-01T11:29:39.278Z,264.38
2022-08-01T11:30:39.274Z,157.50
2022-08-01T11:32:52.615Z,135.00
2022-08-01T11:33:33.374Z,129.38
2022-08-01T11:35:28.609Z,140.63
2022-08-01T11:36:56.768Z,135.00
2022-08-01T11:38:22.598Z,140.63
2022-08-01T11:39:22.600Z,140.63
2022-08-01T11:41:16.754Z,146.25
2022-08-01T11:42:16.735Z,146.25
2022-08-01T11:44:12.862Z,146.25
2022-08-01T11:45:18.102Z,129.38
2022-08-01T11:47:09.699Z,118.13
2022-08-01T11:48:07.020Z,90.00
2022-08-01T11:50:01.119Z,56.25
2022-08-01T11:51:02.208Z,45.00
2022-08-01T11:52:55.000Z,50.63
2022-08-01T11:53:54.989Z,61.88
2022-08-01T11:55:51.431Z,90.00
2022-08-01T11:56:49.202Z,106.88
2022-08-01T11:58:43.289Z,106.88
2022-08-01T12:00:02.566Z,106.88
2022-08-01T12:01:37.399Z,106.88
2022-08-01T12:02:37.468Z,106.88
2022-08-01T12:04:31.556Z,106.88
2022-08-01T12:05:31.645Z,101.25
2022-08-01T12:07:25.651Z,78.75
2022-08-01T12:08:25.639Z,61.88
2022-08-01T12:10:19.777Z,50.63
2022-08-01T12:11:19.772Z,39.38
2022-08-01T12:13:14.063Z,28.13
2022-08-01T12:14:14.051Z,22.50
2022-08-01T12:16:08.135Z,11.25
2022-08-01T12:17:08.534Z,11.25
2022-08-01T12:19:02.289Z,11.25
2022-08-01T12:20:02.290Z,11.25
2022-08-01T12:21:56.358Z,11.25
2022-08-01T12:22:56.343Z,11.25
2022-08-01T12:24:50.486Z,16.88
2022-08-01T12:25:50.483Z,16.88
2022-08-01T12:27:44.589Z,22.50
2022-08-01T12:28:44.577Z,28.13
2022-08-01T12:30:38.301Z,33.75
2022-08-01T12:31:38.286Z,39.38
2022-08-01T12:33:35.062Z,50.63
2022-08-01T12:34:32.447Z,56.25
2022-08-01T12:36:26.529Z,56.25
2022-08-01T12:37:26.520Z,56.25
2022-08-01T12:39:20.790Z,56.25
2022-08-01T12:40:20.787Z,61.88
2022-08-01T12:42:14.958Z,61.88
2022-08-01T12:43:15.776Z,67.50
2022-08-01T12:45:09.024Z,67.50
2022-08-01T12:46:09.019Z,67.50
2022-08-01T12:48:03.120Z,67.50
2022-08-01T12:49:03.168Z,67.50
2022-08-01T12:50:57.176Z,78.75
2022-08-01T12:51:57.707Z,78.75
2022-08-01T12:53:51.338Z,67.50
2022-08-01T12:54:51.338Z,61.88
2022-08-01T12:56:45.558Z,50.63
2022-08-01T12:57:45.556Z,50.63
2022-08-01T12:59:39.615Z,50.63
2022-08-01T13:00:39.612Z,50.63
2022-08-01T13:02:33.710Z,56.25
2022-08-01T13:03:33.697Z,67.50
2022-08-01T13:05:28.790Z,78.75
2022-08-01T13:06:28.778Z,84.38
2022-08-01T13:08:22.981Z,84.38
2022-08-01T13:09:22.979Z,84.38
2022-08-01T13:11:17.799Z,90.00
2022-08-01T13:12:17.058Z,95.63
2022-08-01T13:14:11.117Z,67.50
2022-08-01T13:15:11.113Z,50.63
2022-08-01T13:17:08.575Z,39.38
2022-08-01T13:18:06.205Z,33.75
2022-08-01T13:20:00.254Z,28.13
2022-08-01T13:21:00.253Z,28.13
2022-08-01T13:22:54.329Z,28.13
2022-08-01T13:24:02.699Z,28.13
2022-08-01T13:25:49.412Z,33.75
2022-08-01T13:26:49.407Z,39.38
2022-08-01T13:28:43.477Z,45.00
2022-08-01T13:29:43.482Z,45.00
2022-08-01T13:31:37.550Z,45.00
2022-08-01T13:32:37.540Z,50.63
2022-08-01T13:34:31.705Z,56.25
2022-08-01T13:35:31.700Z,67.50
2022-08-01T13:37:25.590Z,67.50
2022-08-01T13:38:25.578Z,61.88
2022-08-01T13:40:19.673Z,61.88
2022-08-01T13:41:19.667Z,67.50
2022-08-01T13:43:13.781Z,73.13
2022-08-01T13:44:13.765Z,73.13
2022-08-01T13:46:07.958Z,73.13
2022-08-01T13:47:14.785Z,73.13
2022-08-01T13:49:06.854Z,73.13
2022-08-01T13:50:02.198Z,67.50
2022-08-01T13:51:56.115Z,56.25
2022-08-01T13:52:56.106Z,45.00
2022-08-01T13:54:50.250Z,22.50
2022-08-01T13:55:50.247Z,22.50
2022-08-01T13:57:44.299Z,16.88
2022-08-01T13:58:44.291Z,22.50
2022-08-01T14:00:38.382Z,33.75
2022-08-01T14:01:38.395Z,39.38
2022-08-01T14:03:33.833Z,45.00
2022-08-01T14:04:32.661Z,45.00
2022-08-01T14:06:26.802Z,45.00
2022-08-01T14:07:26.895Z,45.00
2022-08-01T14:09:23.839Z,39.38
2022-08-01T14:10:22.666Z,39.38
2022-08-01T14:12:15.965Z,45.00
2022-08-01T14:13:15.954Z,50.63
2022-08-01T14:15:10.281Z,56.25
2022-08-01T14:16:10.278Z,56.25
2022-08-01T14:18:05.811Z,56.25
2022-08-01T14:19:04.388Z,56.25
2022-08-01T14:21:01.271Z,56.25
2022-08-01T14:21:58.479Z,56.25
2022-08-01T14:23:52.591Z,56.25
2022-08-01T14:24:52.592Z,56.25
2022-08-01T14:26:46.724Z,56.25
2022-08-01T14:27:46.715Z,56.25
2022-08-01T14:29:59.904Z,56.25
2022-08-01T14:30:40.842Z,61.88
2022-08-01T14:32:34.936Z,61.88
2022-08-01T14:33:34.928Z,56.25
2022-08-01T14:35:29.070Z,61.88
2022-08-01T14:36:31.486Z,61.88
2022-08-01T14:38:31.168Z,61.88
2022-08-01T14:39:23.139Z,61.88
2022-08-01T14:41:17.278Z,67.50
2022-08-01T14:42:17.265Z,67.50
2022-08-01T14:44:11.389Z,67.50
2022-08-01T14:45:11.383Z,67.50
2022-08-01T14:47:21.397Z,73.13
2022-08-01T14:48:06.506Z,73.13
2022-08-01T14:50:00.597Z,73.13
2022-08-01T14:51:00.596Z,67.50
2022-08-01T14:52:54.718Z,67.50
2022-08-01T14:53:54.701Z,61.88
2022-08-01T14:55:48.812Z,56.25
2022-08-01T14:56:48.805Z,56.25
2022-08-01T14:58:42.878Z,56.25
2022-08-01T14:59:42.876Z,56.25
2022-08-01T15:01:38.085Z,50.63
2022-08-01T15:02:38.021Z,50.63
2022-08-01T15:04:33.201Z,45.00
2022-08-01T15:05:33.198Z,45.00
2022-08-01T15:07:27.322Z,50.63
2022-08-01T15:08:27.319Z,50.63
2022-08-01T15:10:21.466Z,50.63
2022-08-01T15:11:21.463Z,45.00
2022-08-01T15:13:16.237Z,45.00
2022-08-01T15:14:16.228Z,39.38
2022-08-01T15:16:12.007Z,39.38
2022-08-01T15:17:10.391Z,45.00
2022-08-01T15:19:04.490Z,45.00
2022-08-01T15:20:04.489Z,45.00
2022-08-01T15:22:00.089Z,45.00
2022-08-01T15:22:58.559Z,45.00
2022-08-01T15:24:57.120Z,45.00
2022-08-01T15:25:52.673Z,45.00
2022-08-01T15:27:46.961Z,45.00
2022-08-01T15:28:46.947Z,50.63
2022-08-01T15:30:40.678Z,50.63
2022-08-01T15:31:40.667Z,50.63
2022-08-01T15:34:25.491Z,50.63
2022-08-01T15:35:25.483Z,50.63
2022-08-01T15:37:19.659Z,50.63
2022-08-01T15:38:19.650Z,56.25
2022-08-01T15:40:13.724Z,56.25
2022-08-01T15:41:13.724Z,56.25
2022-08-01T15:43:08.869Z,56.25
2022-08-01T15:44:08.851Z,56.25
2022-08-01T15:46:02.932Z,56.25
2022-08-01T15:47:02.926Z,56.25
2022-08-01T15:48:57.084Z,56.25
2022-08-01T15:49:57.025Z,50.63
2022-08-01T15:51:51.304Z,45.00
2022-08-01T15:52:51.292Z,45.00
2022-08-01T15:54:45.386Z,45.00
2022-08-01T15:55:52.668Z,45.00
2022-08-01T15:57:39.475Z,39.38
2022-08-01T15:58:39.461Z,39.38
2022-08-01T16:00:36.086Z,33.75
2022-08-01T16:01:33.610Z,33.75
2022-08-01T16:03:28.698Z,39.38
2022-08-01T16:04:30.009Z,45.00
2022-08-01T16:06:23.812Z,50.63
2022-08-01T16:07:23.796Z,45.00
2022-08-01T16:09:19.291Z,45.00
2022-08-01T16:10:18.893Z,45.00
2022-08-01T16:12:12.628Z,45.00
2022-08-01T16:13:12.624Z,45.00
2022-08-01T16:15:06.698Z,39.38
2022-08-01T16:16:06.695Z,39.38
2022-08-01T16:18:01.925Z,45.00
2022-08-01T16:19:00.748Z,45.00
2022-08-01T16:20:54.825Z,39.38
2022-08-01T16:21:54.811Z,33.75
2022-08-01T16:23:48.944Z,33.75
2022-08-01T16:24:48.940Z,33.75
2022-08-01T16:26:43.175Z,33.75
2022-08-01T16:27:43.114Z,33.75
2022-08-01T16:29:37.239Z,33.75
2022-08-01T16:30:37.234Z,33.75
2022-08-01T16:32:41.511Z,33.75
2022-08-01T16:33:48.073Z,33.75
2022-08-01T16:35:31.358Z,33.75
2022-08-01T16:36:26.370Z,33.75
2022-08-01T16:38:21.010Z,28.13
2022-08-01T16:39:23.226Z,28.13
2022-08-01T16:41:20.152Z,28.13
2022-08-01T16:42:14.548Z,22.50
2022-08-01T16:44:08.686Z,22.50
2022-08-01T16:45:13.650Z,22.50
2022-08-01T16:47:02.807Z,16.88
2022-08-01T16:48:02.785Z,16.88
2022-08-01T16:49:56.957Z,16.88
2022-08-01T16:50:56.955Z,16.88
2022-08-01T16:52:51.056Z,16.88
2022-08-01T16:53:51.042Z,16.88
2022-08-01T16:55:50.512Z,16.88
2022-08-01T16:56:48.255Z,16.88
2022-08-01T16:58:39.249Z,16.88
2022-08-01T16:59:40.838Z,16.88
2022-08-01T17:01:59.433Z,16.88
2022-08-01T17:02:33.460Z,16.88
2022-08-01T17:04:27.493Z,16.88
2022-08-01T17:05:27.487Z,16.88
2022-08-01T17:07:21.707Z,16.88
2022-08-01T17:08:21.701Z,16.88
2022-08-01T17:10:15.806Z,16.88
2022-08-01T17:11:15.797Z,16.88
2022-08-01T17:13:09.875Z,11.25
2022-08-01T17:14:09.864Z,11.25
2022-08-01T17:16:03.939Z,11.25
2022-08-01T17:17:04.312Z,11.25
2022-08-01T17:18:57.967Z,11.25
2022-08-01T17:19:57.963Z,11.25
2022-08-01T17:21:52.033Z,5.63
2022-08-01T17:22:52.023Z,5.63
2022-08-01T17:24:46.084Z,5.63
2022-08-01T17:25:46.075Z,5.63
2022-08-01T17:27:41.172Z,5.63
2022-08-01T17:28:41.161Z,5.63
2022-08-01T17:30:34.903Z,5.63
2022-08-01T17:31:34.894Z,5.63
2022-08-01T17:33:45.951Z,5.63
2022-08-01T17:34:29.065Z,5.63
2022-08-01T17:36:23.209Z,5.63
2022-08-01T17:37:23.171Z,5.63
2022-08-01T17:39:23.175Z,5.63
2022-08-01T17:40:39.029Z,5.63
2022-08-01T17:42:12.583Z,5.63
2022-08-01T17:43:12.574Z,5.63
2022-08-01T17:45:06.758Z,11.25
2022-08-01T17:46:06.752Z,11.25
2022-08-01T17:48:00.873Z,11.25
2022-08-01T17:49:00.946Z,11.25
2022-08-01T17:50:54.958Z,11.25
2022-08-01T17:51:54.945Z,11.25
2022-08-01T17:53:56.726Z,16.88
2022-08-01T17:54:48.980Z,16.88
2022-08-01T17:56:45.987Z,16.88
2022-08-01T17:57:43.078Z,11.25
2022-08-01T17:59:37.154Z,16.88
2022-08-01T18:00:37.150Z,22.50
2022-08-01T18:02:31.329Z,22.50
2022-08-01T18:03:31.320Z,22.50
2022-08-01T18:05:36.795Z,22.50
2022-08-01T18:06:25.040Z,22.50
2022-08-01T18:08:19.183Z,22.50
2022-08-01T18:09:19.167Z,22.50
2022-08-01T18:11:14.357Z,22.50
2022-08-01T18:12:14.348Z,16.88
2022-08-01T18:14:08.458Z,16.88
2022-08-01T18:15:08.452Z,16.88
2022-08-01T18:17:02.693Z,16.88
2022-08-01T18:18:02.676Z,11.25
2022-08-01T18:19:56.805Z,11.25
2022-08-01T18:20:57.674Z,11.25
2022-08-01T18:22:50.917Z,11.25
2022-08-01T18:23:51.775Z,11.25
2022-08-01T18:25:44.958Z,11.25
2022-08-01T18:26:44.953Z,11.25
2022-08-01T18:28:41.638Z,11.25
2022-08-01T18:29:48.095Z,11.25
2022-08-01T18:31:33.126Z,11.25
2022-08-01T18:32:33.115Z,11.25
2022-08-01T18:34:27.189Z,5.63
2022-08-01T18:35:51.406Z,5.63
2022-08-01T18:37:21.292Z,5.63
2022-08-01T18:38:23.975Z,5.63
2022-08-01T18:40:18.430Z,5.63
2022-08-01T18:41:15.399Z,5.63
2022-08-01T18:43:09.131Z,5.63
2022-08-01T18:44:09.369Z,5.63
2022-08-01T18:46:03.205Z,5.63
2022-08-01T18:47:03.194Z,5.63
2022-08-01T18:48:57.399Z,5.63
2022-08-01T18:49:57.354Z,5.63
2022-08-01T18:51:51.488Z,0.00